HOURLY OBS INDEX

008

Central West

ALLANOOKA AG STATION

Site: 008LNO
Alt: 150m
46km SE of GERALDTON


  Time     Wind        Temp  DP   Baro     Rain since   Rain past  Vis(m), Cloud(base in m), Weather
  local        km/h                         9am  last   hr   10m    
Thu 13:00  ESE  6/ 17  38.0  8.4  ------    0.0   0.0   0.0   0.0   ----- 
Thu 13:30    E 13/ 30  37.5  7.2  ------    0.0   0.0   0.0   0.0   ----- 
Thu 14:00    E  6/ 17  39.0 10.4  ------    0.0   0.0   0.0   0.0   ----- 
Thu 14:30  SSW 24/ 35  35.4 11.2  ------    0.0   0.0   0.0   0.0   ----- 
Thu 15:00  SSW 20/ 30  35.2 12.1  ------    0.0   0.0   0.0   0.0   ----- 
Thu 15:30  SSW 22/ 33  33.7 11.8  ------    0.0   0.0   0.0   0.0   ----- 
Thu 15:30  SSW 22/ 33  33.7 11.8  ------    0.0   0.0  ----   0.0   ----- 
Thu 16:00  SSW 22/ 35  33.7 11.9  ------    0.0   0.0   0.0   0.0   ----- 
Thu 16:00  SSW 22/ 35  33.7 11.9  ------    0.0   0.0  ----   0.0   ----- 
Thu 16:00  SSW 22/ 35  33.7 11.9  ------    0.0   0.0  ----   0.0   ----- 
Thu 16:00  SSW 22/ 35  33.7 11.9  ------    0.0   0.0  ----   0.0   ----- 
Thu 16:30    S 22/ 35  33.3 11.5  ------    0.0   0.0   0.0   0.0   ----- 
Thu 17:00    S 24/ 35  32.2 11.6  ------    0.0   0.0   0.0   0.0   ----- 
Thu 17:30    S 22/ 35  31.7 11.4  ------    0.0   0.0   0.0   0.0   ----- 
Thu 18:00    S 22/ 35  30.5 11.1  ------    0.0   0.0   0.0   0.0   ----- 

BINDI BINDI AG STATION

Site: 008IBI
Alt: 300m
33km ENE of MOORA


  Time     Wind        Temp  DP   Baro     Rain since   Rain past  Vis(m), Cloud(base in m), Weather
  local        km/h                         9am  last   hr   10m    
Thu 13:00    N  7/ 24  32.5  8.4  ------    0.0   0.0   0.0   0.0   ----- 
Thu 13:30    E  6/ 17  33.6  8.3  ------    0.0   0.0   0.0   0.0   ----- 
Thu 14:00  WNW  6/ 13  33.7  7.6  ------    0.0   0.0   0.0   0.0   ----- 
Thu 14:30    E 13/ 24  34.2  7.0  ------    0.0   0.0   0.0   0.0   ----- 
Thu 15:00   NE 11/ 22  34.2  6.1  ------    0.0   0.0   0.0   0.0   ----- 
Thu 15:30  ENE  7/ 19  34.0  6.4  ------    0.0   0.0   0.0   0.0   ----- 
Thu 15:30  ENE  7/ 19  34.0  6.4  ------    0.0   0.0  ----   0.0   ----- 
Thu 16:00  ESE  9/ 22  34.7  6.3  ------    0.0   0.0   0.0   0.0   ----- 
Thu 16:00  ESE  9/ 22  34.7  6.3  ------    0.0   0.0  ----   0.0   ----- 
Thu 16:00  ESE  9/ 22  34.7  6.3  ------    0.0   0.0  ----   0.0   ----- 
Thu 16:00  ESE  9/ 22  34.7  6.3  ------    0.0   0.0  ----   0.0   ----- 
Thu 16:30    E 11/ 22  34.7  5.6  ------    0.0   0.0   0.0   0.0   ----- 
Thu 17:00    E 11/ 41  34.5  5.7  ------    0.0   0.0   0.0   0.0   ----- 
Thu 17:30   NE  2/ 11  34.4  5.5  ------    0.0   0.0   0.0   0.0   ----- 
Thu 18:00  ESE  7/ 15  33.8  5.8  ------    0.0   0.0   0.0   0.0   ----- 

BINNU AG STATION

Site: 008GBI
Alt: 277 m
82km N of GERALDTON


  Time     Wind        Temp  DP   Baro     Rain since   Rain past  Vis(m), Cloud(base in m), Weather
  local        km/h                         9am  last   hr   10m    
Thu 13:00    N  9/ 19  37.5  4.8  ------    0.0   0.0   0.0   0.0   ----- 
Thu 13:30    E 15/ 22  37.8  5.1  ------    0.0   0.0   0.0   0.0   ----- 
Thu 14:00    E 15/ 22  38.3  4.7  ------    0.0   0.0   0.0   0.0   ----- 
Thu 14:30  NNE  9/ 24  38.9  3.1  ------    0.0   0.0   0.0   0.0   ----- 
Thu 15:00    N  7/ 15  39.3  3.4  ------    0.0   0.0   0.0   0.0   ----- 
Thu 15:30   SE  6/ 11  39.8  3.2  ------    0.0   0.0   0.0   0.0   ----- 
Thu 16:00  WSW 37/ 46  36.4  8.2  ------    0.0   0.0   0.0   0.0   ----- 
Thu 16:00  WSW 37/ 46  36.4  8.2  ------    0.0   0.0  ----   0.0   ----- 
Thu 16:11  SSW 39/ 46  36.0  8.7  ------    0.0   0.0  ----   0.0   ----- 
Thu 16:11  SSW 39/ 46  36.0  8.7  ------    0.0   0.0  ----   0.0   ----- 
Thu 16:11  SSW 39/ 46  36.0  8.7  ------    0.0   0.0  ----   0.0   ----- 
Thu 16:11  SSW 39/ 46  36.0  8.7  ------    0.0   0.0  ----   0.0   ----- 
Thu 16:30   SW 35/ 46  35.0  9.2  ------    0.0   0.0   0.0   0.0   ----- 
Thu 17:00   SW 39/ 45  33.4 10.6  ------    0.0   0.0   0.0   0.0   ----- 
Thu 17:30   SW 35/ 46  32.3 10.7  ------    0.0   0.0   0.0   0.0   ----- 
Thu 18:00  SSW 33/ 46  31.7 10.4  ------    0.0   0.0   0.0   0.0   ----- 
Thu 18:00  SSW 33/ 46  31.7 10.4  ------    0.0   0.0  ----   0.0   ----- 
Thu 18:00  SSW 33/ 46  31.7 10.4  ------    0.0   0.0  ----   0.0   ----- 

CANNA EAST AG STATION

Site: 008NAE
Alt: 340m
60km SE of MULLEWA


  Time     Wind        Temp  DP   Baro     Rain since   Rain past  Vis(m), Cloud(base in m), Weather
  local        km/h                         9am  last   hr   10m    
Thu 13:00    E 13/ 28  35.4  5.6  ------    0.0   0.0   0.0   0.0   ----- 
Thu 13:30    E 11/ 22  36.2  5.9  ------    0.0   0.0   0.0   0.0   ----- 
Thu 14:00    E  7/ 19  35.6  6.0  ------    0.0   0.0   0.0   0.0   ----- 
Thu 14:30    E  7/ 20  36.1  5.4  ------    0.0   0.0   0.0   0.0   ----- 
Thu 15:00   NW  4/ 17  37.3  5.1  ------    0.0   0.0   0.0   0.0   ----- 
Thu 15:30  ESE  7/ 20  36.9  4.2  ------    0.0   0.0   0.0   0.0   ----- 
Thu 15:30  ESE  7/ 20  36.9  4.2  ------    0.0   0.0  ----   0.0   ----- 
Thu 16:00    E  9/ 20  37.8  2.3  ------    0.0   0.0   0.0   0.0   ----- 
Thu 16:00    E  9/ 20  37.8  2.3  ------    0.0   0.0  ----   0.0   ----- 
Thu 16:00    E  9/ 20  37.8  2.3  ------    0.0   0.0  ----   0.0   ----- 
Thu 16:00    E  9/ 20  37.8  2.3  ------    0.0   0.0  ----   0.0   ----- 
Thu 16:30   NE  6/ 19  36.5  3.7  ------    0.0   0.0   0.0   0.0   ----- 
Thu 17:00  SSE  7/ 15  37.8  2.9  ------    0.0   0.0   0.0   0.0   ----- 
Thu 17:30   NE  9/ 15  37.1  1.6  ------    0.0   0.0   0.0   0.0   ----- 

CHAPMAN VALLEY AG STATION

Site: 008GCH
Alt: 191 m
39km NE of GERALDTON


  Time     Wind        Temp  DP   Baro     Rain since   Rain past  Vis(m), Cloud(base in m), Weather
  local        km/h                         9am  last   hr   10m    
Thu 13:00    E 11/ 28  37.4  5.8  ------    0.0   0.0   0.0   0.0   ----- 
Thu 13:30  ENE  9/ 20  38.3  5.0  ------    0.0   0.0   0.0   0.0   ----- 
Thu 14:00    N  6/ 17  38.0  4.6  ------    0.0   0.0   0.0   0.0   ----- 
Thu 14:30   SE 17/ 33  37.9  4.3  ------    0.0   0.0   0.0   0.0   ----- 
Thu 15:00   SE 11/ 26  39.7  4.2  ------    0.0   0.0   0.0   0.0   ----- 
Thu 15:30    S 26/ 43  36.9  9.0  ------    0.0   0.0   0.0   0.0   ----- 
Thu 15:30    S 26/ 43  36.9  9.0  ------    0.0   0.0  ----   0.0   ----- 
Thu 16:00  SSW 30/ 39  35.3  9.5  ------    0.0   0.0   0.0   0.0   ----- 
Thu 16:00  SSW 30/ 39  35.3  9.5  ------    0.0   0.0  ----   0.0   ----- 
Thu 16:00  SSW 30/ 39  35.3  9.5  ------    0.0   0.0  ----   0.0   ----- 
Thu 16:00  SSW 30/ 39  35.3  9.5  ------    0.0   0.0  ----   0.0   ----- 
Thu 16:30    S 28/ 43  34.8 10.1  ------    0.0   0.0   0.0   0.0   ----- 
Thu 17:00    S 30/ 43  33.1 10.2  ------    0.0   0.0   0.0   0.0   ----- 
Thu 17:30    S 28/ 43  32.5  9.8  ------    0.0   0.0   0.0   0.0   ----- 
Thu 18:00    S 24/ 39  31.5 10.4  ------    0.0   0.0   0.0   0.0   ----- 

COOROW AG STATION

Site: 008ORW
Alt: 280m
28km SSE of CARNAMAH


  Time     Wind        Temp  DP   Baro     Rain since   Rain past  Vis(m), Cloud(base in m), Weather
  local        km/h                         9am  last   hr   10m    
Thu 13:00    E 13/ 26  34.2  7.4  ------    0.0   0.0   0.0   0.0   ----- 
Thu 13:30  SSW  6/ 19  34.9  7.5  ------    0.0   0.0   0.0   0.0   ----- 
Thu 14:00   NE  7/ 15  34.9  7.2  ------    0.0   0.0   0.0   0.0   ----- 
Thu 14:00   NE  7/ 15  34.9  7.2  ------    0.0   0.0  ----   0.0   ----- 
Thu 14:30   SE 13/ 20  35.3  6.0  ------    0.0   0.0   0.0   0.0   ----- 
Thu 15:00  SSE  7/ 17  35.2  6.6  ------    0.0   0.0   0.0   0.0   ----- 
Thu 15:00  SSE  7/ 17  35.2  6.6  ------    0.0   0.0  ----   0.0   ----- 
Thu 15:30  ENE  9/ 26  35.6  5.6  ------    0.0   0.0   0.0   0.0   ----- 
Thu 15:30  ENE  9/ 26  35.6  5.6  ------    0.0   0.0  ----   0.0   ----- 
Thu 15:30  ENE  9/ 26  35.6  5.6  ------    0.0   0.0  ----   0.0   ----- 
Thu 16:00    N  7/ 17  36.0  5.4  ------    0.0   0.0   0.0   0.0   ----- 
Thu 16:00    N  7/ 17  36.0  5.4  ------    0.0   0.0  ----   0.0   ----- 
Thu 16:30  SSE  6/ 15  36.1  5.7  ------    0.0   0.0   0.0   0.0   ----- 
Thu 16:30  SSE  6/ 15  36.1  5.7  ------    0.0   0.0  ----   0.0   ----- 
Thu 17:00   NE  7/ 19  35.7  5.4  ------    0.0   0.0   0.0   0.0   ----- 
Thu 17:30    E  7/ 17  35.3  5.0  ------    0.0   0.0   0.0   0.0   ----- 
Thu 18:00    E  6/ 13  35.1  5.4  ------    0.0   0.0   0.0   0.0   ----- 
Thu 18:00    E  6/ 13  35.1  5.4  ------    0.0   0.0  ----   0.0   ----- 
Thu 18:00    E  6/ 13  35.1  5.4  ------    0.0   0.0  ----   0.0   ----- 

DALWALLINU

Site: 008297
Alt: 324.5m
76km ENE of MOORA


  Time     Wind        Temp  DP   Baro     Rain since   Rain past  Vis(m), Cloud(base in m), Weather
  local        km/h                         9am  last   hr   10m    
Thu 13:00   NE 22/ 32  33.8  9.1  1014.0    0.0   0.0   0.0   0.0   ----- 
Thu 14:00  NNE 11/ 24  35.1  7.2  1013.2    0.0   0.0   0.0   0.0   ----- 
Thu 15:00    N 19/ 32  34.1  6.4  1012.6    0.0   0.0   0.0   0.0   ----- 
Thu 16:00    N 17/ 32  34.7  6.1  1012.1    0.0   0.0   0.0   0.0   ----- 
Thu 16:00    N 17/ 32  34.7  6.1  1012.1    0.0   0.0  ----   0.0   ----- 
Thu 17:00    N 13/ 20  34.9  7.1  1011.8    0.0   0.0   0.0   0.0   ----- 
Thu 18:00  ENE  9/ 20  34.0  6.3  1011.9    0.0   0.0   0.0   0.0   ----- 
Thu 18:00  ENE  9/ 20  34.0  6.3  1011.9    0.0   0.0  ----   0.0   ----- 
Thu 18:00  ENE  9/ 20  34.0  6.3  1011.9    0.0   0.0  ----   0.0   ----- 

ENEABBA AG STATION

Site: 008NEA
Alt: 210m
56km WSW of CARNAMAH


  Time     Wind        Temp  DP   Baro     Rain since   Rain past  Vis(m), Cloud(base in m), Weather
  local        km/h                         9am  last   hr   10m    
Thu 13:00   NE  7/ 20  35.6  6.5  ------    0.0   0.0   0.0   0.0   ----- 
Thu 13:30   SE  6/ 15  36.2  5.9  ------    0.0   0.0   0.0   0.0   ----- 
Thu 14:00    S  7/ 17  37.7  6.4  ------    0.0   0.0   0.0   0.0   ----- 
Thu 14:00    S  7/ 17  37.7  6.4  ------    0.0   0.0  ----   0.0   ----- 
Thu 14:30    S  7/ 26  36.9  6.2  ------    0.0   0.0   0.0   0.0   ----- 
Thu 15:00  ESE 15/ 26  37.0  5.8  ------    0.0   0.0   0.0   0.0   ----- 
Thu 15:00  ESE 15/ 26  37.0  5.8  ------    0.0   0.0  ----   0.0   ----- 
Thu 15:30    E  9/ 20  36.9  5.4  ------    0.0   0.0   0.0   0.0   ----- 
Thu 15:30    E  9/ 20  36.9  5.4  ------    0.0   0.0  ----   0.0   ----- 
Thu 15:30    E  9/ 20  36.9  5.4  ------    0.0   0.0  ----   0.0   ----- 
Thu 16:00  WSW 17/ 50  36.0  8.6  ------    0.0   0.0   0.0   0.0   ----- 
Thu 16:00  WSW 17/ 50  36.0  8.6  ------    0.0   0.0  ----   0.0   ----- 
Thu 16:30  WSW 26/ 43  35.2  9.1  ------    0.0   0.0   0.0   0.0   ----- 
Thu 16:30  WSW 26/ 43  35.2  9.1  ------    0.0   0.0  ----   0.0   ----- 
Thu 17:00   SW 24/ 39  34.8  9.4  ------    0.0   0.0   0.0   0.0   ----- 
Thu 17:30   SW 24/ 41  33.2  9.8  ------    0.0   0.0   0.0   0.0   ----- 
Thu 18:00   SW 22/ 35  32.5 10.0  ------    0.0   0.0   0.0   0.0   ----- 
Thu 18:00   SW 22/ 35  32.5 10.0  ------    0.0   0.0  ----   0.0   ----- 
Thu 18:00   SW 22/ 35  32.5 10.0  ------    0.0   0.0  ----   0.0   ----- 

ERADU AG STATION

Site: 008GER
Alt: 259 m
38km E of GERALDTON


  Time     Wind        Temp  DP   Baro     Rain since   Rain past  Vis(m), Cloud(base in m), Weather
  local        km/h                         9am  last   hr   10m    
Thu 13:00   NE  9/ 19  36.9  7.0  ------    0.0   0.0   0.0   0.0   ----- 
Thu 13:30   SE  9/ 24  37.6  6.1  ------    0.0   0.0   0.0   0.0   ----- 
Thu 14:00  ESE  7/ 19  37.5  6.7  ------    0.0   0.0   0.0   0.0   ----- 
Thu 14:30    E  7/ 17  38.3  5.8  ------    0.0   0.0   0.0   0.0   ----- 
Thu 15:00  WNW  6/ 13  37.5  6.0  ------    0.0   0.0   0.0   0.0   ----- 
Thu 15:30    S  7/ 19  38.5 10.9  ------    0.0   0.0   0.0   0.0   ----- 
Thu 15:30    S  7/ 19  38.5 10.9  ------    0.0   0.0  ----   0.0   ----- 
Thu 16:00    S 13/ 30  36.0 11.4  ------    0.0   0.0   0.0   0.0   ----- 
Thu 16:00    S 13/ 30  36.0 11.4  ------    0.0   0.0  ----   0.0   ----- 
Thu 16:00    S 13/ 30  36.0 11.4  ------    0.0   0.0  ----   0.0   ----- 
Thu 16:00    S 13/ 30  36.0 11.4  ------    0.0   0.0  ----   0.0   ----- 
Thu 16:30    S 15/ 30  34.9 11.3  ------    0.0   0.0   0.0   0.0   ----- 
Thu 17:00    S 19/ 30  33.8 11.3  ------    0.0   0.0   0.0   0.0   ----- 
Thu 17:30    S 19/ 32  32.7 11.3  ------    0.0   0.0   0.0   0.0   ----- 
Thu 18:00    S 20/ 37  31.4 11.2  ------    0.0   0.0   0.0   0.0   ----- 

ERANGY SPRINGS AG STATION

Site: 008RAS
Alt: 235m
65km E of GERALDTON


  Time     Wind        Temp  DP   Baro     Rain since   Rain past  Vis(m), Cloud(base in m), Weather
  local        km/h                         9am  last   hr   10m    
Thu 13:00    E  6/ 19  36.0  6.2  ------    0.0   0.0   0.0   0.0   ----- 
Thu 13:30    E  7/ 15  36.3  5.3  ------    0.0   0.0   0.0   0.0   ----- 
Thu 14:00  ESE 13/ 28  36.7  4.6  ------    0.0   0.0   0.0   0.0   ----- 
Thu 14:30    N  4/ 15  37.4  4.2  ------    0.0   0.0   0.0   0.0   ----- 
Thu 15:00  ENE  7/ 15  37.4  4.1  ------    0.0   0.0   0.0   0.0   ----- 
Thu 15:30   SE  7/ 19  37.6  4.1  ------    0.0   0.0   0.0   0.0   ----- 
Thu 15:30   SE  7/ 19  37.6  4.1  ------    0.0   0.0  ----   0.0   ----- 
Thu 16:00    E  9/ 26  38.1  3.5  ------    0.0   0.0   0.0   0.0   ----- 
Thu 16:00    E  9/ 26  38.1  3.5  ------    0.0   0.0  ----   0.0   ----- 
Thu 16:00    E  9/ 26  38.1  3.5  ------    0.0   0.0  ----   0.0   ----- 
Thu 16:00    E  9/ 26  38.1  3.5  ------    0.0   0.0  ----   0.0   ----- 
Thu 16:30  ESE  9/ 22  38.0  3.1  ------    0.0   0.0   0.0   0.0   ----- 
Thu 17:00    S  6/ 20  38.2  7.4  ------    0.0   0.0   0.0   0.0   ----- 
Thu 17:30  SSW 19/ 35  34.8  8.9  ------    0.0   0.0   0.0   0.0   ----- 
Thu 18:00  SSW 15/ 28  34.2  9.2  ------    0.0   0.0   0.0   0.0   ----- 

GERALDTON AIRPORT

Site: 008315
Alt: 29.7m
9km ESE of GERALDTON


  Time     Wind        Temp  DP   Baro     Rain since   Rain past  Vis(m), Cloud(base in m), Weather
  local        km/h                         9am  last   hr   10m    
Thu 13:00   SW 28/ 35  35.8 10.8  1009.7    0.0   0.0   0.0   0.0   10000 
Thu 13:30   SW 28/ 35  35.2 12.8  1009.5    0.0   0.0   0.0   0.0   10000 
Thu 14:00  SSW 32/ 39  33.8 13.3  1009.3    0.0   0.0   0.0   0.0   10000 
Thu 14:30  SSW 30/ 39  32.7 13.4  1009.1    0.0   0.0   0.0   0.0   10000 
Thu 15:00    S 33/ 46  31.2 13.5  1009.0    0.0   0.0   0.0   0.0   10000 
Thu 15:30    S 35/ 48  30.4 14.5  1009.0    0.0   0.0   0.0   0.0   10000 
Thu 16:00    S 35/ 46  30.1 13.8  1008.7    0.0   0.0   0.0   0.0   10000 
Thu 16:00    S 35/ 46  30.1 13.8  1008.7    0.0   0.0  ----   0.0   10000 
Thu 16:30  SSE 35/ 46  29.9 14.0  1008.6    0.0   0.0   0.0   0.0   10000 
Thu 17:00    S 37/ 46  29.5 13.7  1008.6    0.0   0.0   0.0   0.0   10000 
Thu 17:30  SSE 39/ 50  28.3 13.8  1008.5    0.0   0.0   0.0   0.0   10000 
Thu 18:00  SSE 39/ 50  27.6 13.5  1008.5    0.0   0.0   0.0   0.0   10000 
Thu 18:00  SSE 39/ 50  27.6 13.5  1008.5    0.0   0.0  ----   0.0   10000 
Thu 18:00  SSE 39/ 50  27.6 13.5  1008.5    0.0   0.0  ----   0.0   10000 

GUTHA WEST AG STATION

Site: 008TAW
Alt: 280m
65km SSE of MULLEWA


  Time     Wind        Temp  DP   Baro     Rain since   Rain past  Vis(m), Cloud(base in m), Weather
  local        km/h                         9am  last   hr   10m    
Thu 13:00  ESE  9/ 20  35.6  7.1  ------    0.0   0.0   0.0   0.0   ----- 
Thu 13:30    E 13/ 24  35.8  5.7  ------    0.0   0.0   0.0   0.0   ----- 
Thu 14:00  NNE  7/ 20  36.7  6.0  ------    0.0   0.0   0.0   0.0   ----- 
Thu 14:00  NNE  7/ 20  36.7  6.0  ------    0.0   0.0  ----   0.0   ----- 
Thu 14:30   NE  7/ 19  36.8  5.5  ------    0.0   0.0   0.0   0.0   ----- 
Thu 15:00  ESE  4/ 13  36.2  5.6  ------    0.0   0.0   0.0   0.0   ----- 
Thu 15:00  ESE  4/ 13  36.2  5.6  ------    0.0   0.0  ----   0.0   ----- 
Thu 15:30  NNW  7/ 22  37.9  5.4  ------    0.0   0.0   0.0   0.0   ----- 
Thu 15:30  NNW  7/ 22  37.9  5.4  ------    0.0   0.0  ----   0.0   ----- 
Thu 15:30  NNW  7/ 22  37.9  5.4  ------    0.0   0.0  ----   0.0   ----- 
Thu 16:00  ENE  4/ 19  37.0  5.3  ------    0.0   0.0   0.0   0.0   ----- 
Thu 16:00  ENE  4/ 19  37.0  5.3  ------    0.0   0.0  ----   0.0   ----- 
Thu 16:30   SE  4/ 15  37.8  5.5  ------    0.0   0.0   0.0   0.0   ----- 
Thu 16:30   SE  4/ 15  37.8  5.5  ------    0.0   0.0  ----   0.0   ----- 
Thu 17:00   SE  4/ 15  37.1  5.3  ------    0.0   0.0   0.0   0.0   ----- 
Thu 17:30  ESE  6/ 13  37.3  5.4  ------    0.0   0.0   0.0   0.0   ----- 
Thu 18:00  ESE  6/ 15  36.5  5.3  ------    0.0   0.0   0.0   0.0   ----- 
Thu 18:00  ESE  6/ 15  36.5  5.3  ------    0.0   0.0  ----   0.0   ----- 
Thu 18:00  ESE  6/ 15  36.5  5.3  ------    0.0   0.0  ----   0.0   ----- 

LATHAM AG STATION

Site: 008THM
Alt: 300m
65km ESE of CARNAMAH


  Time     Wind        Temp  DP   Baro     Rain since   Rain past  Vis(m), Cloud(base in m), Weather
  local        km/h                         9am  last   hr   10m    
Thu 13:00  ENE  9/ 20  34.0  6.8  ------    0.0   0.0   0.0   0.0   ----- 
Thu 13:30  ENE  9/ 26  34.2  6.3  ------    0.0   0.0   0.0   0.0   ----- 
Thu 14:00  ESE  9/ 19  34.2  6.4  ------    0.0   0.0   0.0   0.0   ----- 
Thu 14:30    S  6/ 20  35.7  6.3  ------    0.0   0.0   0.0   0.0   ----- 
Thu 15:00    E  6/ 20  35.0  5.7  ------    0.0   0.0   0.0   0.0   ----- 
Thu 15:30   NE  6/ 17  35.7  5.4  ------    0.0   0.0   0.0   0.0   ----- 
Thu 15:30   NE  6/ 17  35.7  5.4  ------    0.0   0.0  ----   0.0   ----- 
Thu 16:00  ENE  9/ 22  35.7  5.5  ------    0.0   0.0   0.0   0.0   ----- 
Thu 16:00  ENE  9/ 22  35.7  5.5  ------    0.0   0.0  ----   0.0   ----- 
Thu 16:00  ENE  9/ 22  35.7  5.5  ------    0.0   0.0  ----   0.0   ----- 
Thu 16:00  ENE  9/ 22  35.7  5.5  ------    0.0   0.0  ----   0.0   ----- 
Thu 16:30  ESE  9/ 20  35.2  5.4  ------    0.0   0.0   0.0   0.0   ----- 
Thu 17:00  ENE  7/ 17  35.7  5.4  ------    0.0   0.0   0.0   0.0   ----- 
Thu 17:30    E  9/ 17  34.8  5.5  ------    0.0   0.0   0.0   0.0   ----- 

MINGENEW

Site: 008GMI
Alt: 295.0m
12km SW of MINGENEW


  Time     Wind        Temp  DP   Baro     Rain since   Rain past  Vis(m), Cloud(base in m), Weather
  local        km/h                         9am  last   hr   10m    
Thu 13:00  ESE 11/ 30  36.6  7.9  ------    0.0   0.0   0.0   0.0   ----- 
Thu 13:30  ENE 11/ 26  37.1  7.7  ------    0.0   0.0   0.0   0.0   ----- 
Thu 14:00    E 11/ 26  36.9  7.4  ------    0.0   0.0   0.0   0.0   ----- 
Thu 14:30  ESE  9/ 20  38.3  7.2  ------    0.0   0.0   0.0   0.0   ----- 
Thu 15:00  ESE  4/ 13  37.1  6.8  ------    0.0   0.0   0.0   0.0   ----- 
Thu 15:30   NE  6/ 17  37.3  7.1  ------    0.0   0.0   0.0   0.0   ----- 
Thu 15:30   NE  6/ 17  37.3  7.1  ------    0.0   0.0  ----   0.0   ----- 
Thu 15:30   NE  6/ 17  37.3  7.1  ------    0.0   0.0  ----   0.0   ----- 
Thu 16:00   SE  7/ 17  38.3  6.9  ------    0.0   0.0   0.0   0.0   ----- 
Thu 16:00   SE  7/ 17  38.3  6.9  ------    0.0   0.0  ----   0.0   ----- 
Thu 16:00   SE  7/ 17  38.3  6.9  ------    0.0   0.0  ----   0.0   ----- 
Thu 16:00   SE  7/ 17  38.3  6.9  ------    0.0   0.0  ----   0.0   ----- 
Thu 16:30    S  4/  9  38.5  6.8  ------    0.0   0.0   0.0   0.0   ----- 
Thu 17:00    S 13/ 26  37.1  9.7  ------    0.0   0.0   0.0   0.0   ----- 
Thu 17:30    S 22/ 39  35.0 10.8  ------    0.0   0.0   0.0   0.0   ----- 
Thu 18:00    S 22/ 35  33.5 10.8  ------    0.0   0.0   0.0   0.0   ----- 

MOORA AG STATION

Site: 008GMZ
Alt: m
km of


  Time     Wind        Temp  DP   Baro     Rain since   Rain past  Vis(m), Cloud(base in m), Weather
  local        km/h                         9am  last   hr   10m    
Thu 13:00   NE 11/ 20  35.1  8.5  ------    0.0   0.0   0.0   0.0   ----- 
Thu 13:30  SSE  7/ 17  34.8  8.2  ------    0.0   0.0   0.0   0.0   ----- 
Thu 14:00    E  9/ 17  35.5  7.6  ------    0.0   0.0   0.0   0.0   ----- 
Thu 14:30  NNE  9/ 15  36.4  7.0  ------    0.0   0.0   0.0   0.0   ----- 
Thu 15:00    E  6/ 19  36.2  6.8  ------    0.0   0.0   0.0   0.0   ----- 
Thu 15:30  SSE  6/ 13  36.6  6.7  ------    0.0   0.0   0.0   0.0   ----- 
Thu 15:30  SSE  6/ 13  36.6  6.7  ------    0.0   0.0  ----   0.0   ----- 
Thu 16:00    E  4/  7  36.2  6.6  ------    0.0   0.0   0.0   0.0   ----- 
Thu 16:00    E  4/  7  36.2  6.6  ------    0.0   0.0  ----   0.0   ----- 
Thu 16:00    E  4/  7  36.2  6.6  ------    0.0   0.0  ----   0.0   ----- 
Thu 16:00    E  4/  7  36.2  6.6  ------    0.0   0.0  ----   0.0   ----- 
Thu 16:30   NE  7/ 15  36.3  6.5  ------    0.0   0.0   0.0   0.0   ----- 
Thu 17:00   SE  9/ 19  36.3  6.1  ------    0.0   0.0   0.0   0.0   ----- 
Thu 17:30    E  7/ 15  36.0  5.8  ------    0.0   0.0   0.0   0.0   ----- 
Thu 18:00  ESE  7/ 11  35.4  5.7  ------    0.0   0.0   0.0   0.0   ----- 

MORAWA AG STATION

Site: 008GMO
Alt: m
km of


  Time     Wind        Temp  DP   Baro     Rain since   Rain past  Vis(m), Cloud(base in m), Weather
  local        km/h                         9am  last   hr   10m    
Thu 13:00  ENE 17/ 33  35.6  7.7  ------    0.0   0.0   0.0   0.0   ----- 
Thu 13:30  ESE 17/ 28  35.9  7.7  ------    0.0   0.0   0.0   0.0   ----- 
Thu 14:00   SE 11/ 22  36.4  5.7  ------    0.0   0.0   0.0   0.0   ----- 
Thu 14:30   SE 15/ 26  36.7  7.0  ------    0.0   0.0   0.0   0.0   ----- 
Thu 15:00  ESE  7/ 26  36.6  6.5  ------    0.0   0.0   0.0   0.0   ----- 
Thu 15:30   SE  7/ 17  36.8  6.4  ------    0.0   0.0   0.0   0.0   ----- 
Thu 16:00    S  4/ 15  37.1  5.9  ------    0.0   0.0   0.0   0.0   ----- 
Thu 16:00    S  4/ 15  37.1  5.9  ------    0.0   0.0  ----   0.0   ----- 
Thu 16:30    E  4/ 13  36.7  6.0  ------    0.0   0.0   0.0   0.0   ----- 
Thu 17:00    E  6/ 13  36.3  5.8  ------    0.0   0.0   0.0   0.0   ----- 
Thu 17:30    E 11/ 20  36.4  5.5  ------    0.0   0.0   0.0   0.0   ----- 
Thu 18:00   SE  6/ 13  36.3  5.2  ------    0.0   0.0   0.0   0.0   ----- 
Thu 18:00   SE  6/ 13  36.3  5.2  ------    0.0   0.0  ----   0.0   ----- 
Thu 18:00   SE  6/ 13  36.3  5.2  ------    0.0   0.0  ----   0.0   ----- 

MORAWA AIRPORT

Site: 008296
Alt: 271.4m
145km ESE of GERALDTON


  Time     Wind        Temp  DP   Baro     Rain since   Rain past  Vis(m), Cloud(base in m), Weather
  local        km/h                         9am  last   hr   10m    
Thu 13:00    E 15/ 32  35.1  8.0  1012.3    0.0   0.0   0.0   0.0   ----- 
Thu 13:30    E 11/ 22  35.7  7.7  1011.9    0.0   0.0   0.0   0.0   ----- 
Thu 14:00  ESE 13/ 20  36.0  7.1  1011.5    0.0   0.0   0.0   0.0   ----- 
Thu 14:30    E 13/ 26  37.8  6.7  1011.1    0.0   0.0   0.0   0.0   ----- 
Thu 15:00    N  7/ 17  36.7  6.8  1010.8    0.0   0.0   0.0   0.0   ----- 
Thu 15:30  ENE  9/ 19  36.7  5.9  1010.5    0.0   0.0   0.0   0.0   ----- 
Thu 16:00  ENE 15/ 28  37.3  5.3  1010.2    0.0   0.0   0.0   0.0   ----- 
Thu 16:00  ENE 15/ 28  37.3  5.3  1010.2    0.0   0.0  ----   0.0   ----- 
Thu 16:30    E 11/ 20  36.6  4.8  1010.1    0.0   0.0   0.0   0.0   ----- 
Thu 17:00    E 17/ 24  37.4  5.4  1009.9    0.0   0.0   0.0   0.0   ----- 
Thu 17:30  ESE  9/ 19  37.1  5.2  1009.9    0.0   0.0   0.0   0.0   ----- 
Thu 18:00    E  9/ 17  36.5  4.7  1009.9    0.0   0.0   0.0   0.0   ----- 
Thu 18:00    E  9/ 17  36.5  4.7  1009.9    0.0   0.0  ----   0.0   ----- 
Thu 18:00    E  9/ 17  36.5  4.7  1009.9    0.0   0.0  ----   0.0   ----- 

MULLEWA AG STATION

Site: 008GMU
Alt: m
92km ENE of GERALDTON


  Time     Wind        Temp  DP   Baro     Rain since   Rain past  Vis(m), Cloud(base in m), Weather
  local        km/h                         9am  last   hr   10m    
Thu 13:00  ESE  9/ 17  37.3  5.0  ------    0.0   0.0   0.0   0.0   ----- 
Thu 13:30  NNE  7/ 17  36.7  2.8  ------    0.0   0.0   0.0   0.0   ----- 
Thu 14:00  ENE  7/ 24  38.4  3.1  ------    0.0   0.0   0.0   0.0   ----- 
Thu 14:30   SE  4/ 17  38.1  2.3  ------    0.0   0.0   0.0   0.0   ----- 
Thu 15:00    N  9/ 19  38.3  2.2  ------    0.0   0.0   0.0   0.0   ----- 
Thu 15:30  SSE  6/ 15  38.6  1.7  ------    0.0   0.0   0.0   0.0   ----- 
Thu 16:00   NE  6/ 17  38.3  1.8  ------    0.0   0.0   0.0   0.0   ----- 
Thu 16:00   NE  6/ 17  38.3  1.8  ------    0.0   0.0  ----   0.0   ----- 
Thu 16:30   SE  2/  7  38.5  1.5  ------    0.0   0.0   0.0   0.0   ----- 
Thu 17:00  ESE  6/ 15  38.4  1.1  ------    0.0   0.0   0.0   0.0   ----- 
Thu 17:30    S  4/ 13  38.9  1.1  ------    0.0   0.0   0.0   0.0   ----- 
Thu 18:00    E  6/ 11  38.0  1.5  ------    0.0   0.0   0.0   0.0   ----- 
Thu 18:00    E  6/ 11  38.0  1.5  ------    0.0   0.0  ----   0.0   ----- 
Thu 18:00    E  6/ 11  38.0  1.5  ------    0.0   0.0  ----   0.0   ----- 

MURESK AG STATION

Site: 008GMK
Alt: 116.0m
8km SSE of NORTHAM


  Time     Wind        Temp  DP   Baro     Rain since   Rain past  Vis(m), Cloud(base in m), Weather
  local        km/h                         9am  last   hr   10m    
Thu 13:00    E  9/ 28  31.4 10.3  ------    0.0   0.0   0.0   0.0   ----- 
Thu 13:30  ENE  9/ 22  32.8  9.9  ------    0.0   0.0   0.0   0.0   ----- 
Thu 14:00    E  6/ 20  33.8  9.5  ------    0.0   0.0   0.0   0.0   ----- 
Thu 14:30   SE  7/ 17  33.6  9.0  ------    0.0   0.0   0.0   0.0   ----- 
Thu 15:00  ENE  9/ 22  33.9  8.3  ------    0.0   0.0   0.0   0.0   ----- 
Thu 15:30  ESE  9/ 17  34.0  8.5  ------    0.0   0.0   0.0   0.0   ----- 
Thu 15:30  ESE  9/ 17  34.0  8.5  ------    0.0   0.0  ----   0.0   ----- 
Thu 15:30  ESE  9/ 17  34.0  8.5  ------    0.0   0.0  ----   0.0   ----- 
Thu 16:00   NE  6/ 15  33.8  8.0  ------    0.0   0.0   0.0   0.0   ----- 
Thu 16:00   NE  6/ 15  33.8  8.0  ------    0.0   0.0  ----   0.0   ----- 
Thu 16:30  ESE  7/ 26  33.7  7.8  ------    0.0   0.0   0.0   0.0   ----- 
Thu 17:00    E 13/ 22  33.6  7.3  ------    0.0   0.0   0.0   0.0   ----- 
Thu 17:30   SE  4/  9  34.2  7.1  ------    0.0   0.0   0.0   0.0   ----- 
Thu 18:00  ENE  9/ 15  32.7  6.9  ------    0.0   0.0   0.0   0.0   ----- 
Thu 18:00  ENE  9/ 15  32.7  6.9  ------    0.0   0.0  ----   0.0   ----- 
Thu 18:00  ENE  9/ 15  32.7  6.9  ------    0.0   0.0  ----   0.0   ----- 

NORTH ISLAND

Site: 008290
Alt: 2.2m
113km WNW of GERALDTON


  Time     Wind        Temp  DP   Baro     Rain since   Rain past  Vis(m), Cloud(base in m), Weather
  local        km/h                         9am  last   hr   10m    
Thu 13:00    S 26/ 32  25.4 17.3  1010.9    0.0   0.0   0.0   0.0   ----- 
Thu 14:00    S 30/ 35  25.5 18.4  1010.2    0.0   0.0   0.0   0.0   ----- 
Thu 15:00    S 30/ 35  25.1 18.3  1009.9    0.0   0.0   0.0   0.0   ----- 
Thu 16:00    S 30/ 37  24.5 18.0  1009.5    0.0   0.0   0.0   0.0   ----- 
Thu 16:00    S 30/ 37  24.5 18.0  1009.5    0.0   0.0  ----   0.0   ----- 
Thu 17:00    S 30/ 37  24.4 18.3  1009.2    0.0   0.0   0.0   0.0   ----- 
Thu 18:00    S 28/ 35  23.6 18.0  1009.6    0.0   0.0   0.0   0.0   ----- 
Thu 18:00    S 28/ 35  23.6 18.0  1009.6    0.0   0.0  ----   0.0   ----- 
Thu 18:00    S 28/ 35  23.6 18.0  1009.6    0.0   0.0  ----   0.0   ----- 

PERENJORI AG STATION

Site: 008NJA
Alt: 300m
49km NE of CARNAMAH


  Time     Wind        Temp  DP   Baro     Rain since   Rain past  Vis(m), Cloud(base in m), Weather
  local        km/h                         9am  last   hr   10m    
Thu 13:00  ENE 11/ 26  34.6  7.7  ------    0.0   0.0   0.0   0.0   ----- 
Thu 13:30  ESE 13/ 26  35.1  7.5  ------    0.0   0.0   0.0   0.0   ----- 
Thu 14:00   NE  7/ 15  35.4  7.4  ------    0.0   0.0   0.0   0.0   ----- 
Thu 14:30   NE 13/ 24  34.8  6.9  ------    0.0   0.0   0.0   0.0   ----- 
Thu 15:00   NE  7/ 17  35.4  6.1  ------    0.0   0.0   0.0   0.0   ----- 
Thu 15:30    E 11/ 20  35.1  6.6  ------    0.0   0.0   0.0   0.0   ----- 
Thu 15:30    E 11/ 20  35.1  6.6  ------    0.0   0.0  ----   0.0   ----- 
Thu 16:00    E 13/ 30  36.0  6.3  ------    0.0   0.0   0.0   0.0   ----- 
Thu 16:00    E 13/ 30  36.0  6.3  ------    0.0   0.0  ----   0.0   ----- 
Thu 16:00    E 13/ 30  36.0  6.3  ------    0.0   0.0  ----   0.0   ----- 
Thu 16:00    E 13/ 30  36.0  6.3  ------    0.0   0.0  ----   0.0   ----- 
Thu 16:30   SE 11/ 24  36.2  6.1  ------    0.0   0.0   0.0   0.0   ----- 
Thu 17:00   SE  9/ 19  36.4  6.2  ------    0.0   0.0   0.0   0.0   ----- 
Thu 17:30  ESE 13/ 26  35.8  6.0  ------    0.0   0.0   0.0   0.0   ----- 

THREE SPRINGS AG STATION

Site: 008RES
Alt: 250m
19km NNW of CARNAMAH


  Time     Wind        Temp  DP   Baro     Rain since   Rain past  Vis(m), Cloud(base in m), Weather
  local        km/h                         9am  last   hr   10m    
Thu 13:00  ESE 13/ 24  35.6  7.2  ------    0.0   0.0   0.0   0.0   ----- 
Thu 13:30    E 11/ 26  36.6  6.5  ------    0.0   0.0   0.0   0.0   ----- 
Thu 14:00  ENE  9/ 28  36.6  6.4  ------    0.0   0.0   0.0   0.0   ----- 
Thu 14:30  ESE 11/ 28  36.0  6.3  ------    0.0   0.0   0.0   0.0   ----- 
Thu 15:00  SSE  7/ 22  36.3  6.3  ------    0.0   0.0   0.0   0.0   ----- 
Thu 15:30  ENE 11/ 22  36.4  5.6  ------    0.0   0.0   0.0   0.0   ----- 
Thu 15:30  ENE 11/ 22  36.4  5.6  ------    0.0   0.0  ----   0.0   ----- 
Thu 16:00    E 11/ 22  36.4  6.0  ------    0.0   0.0   0.0   0.0   ----- 
Thu 16:00    E 11/ 22  36.4  6.0  ------    0.0   0.0  ----   0.0   ----- 
Thu 16:00    E 11/ 22  36.4  6.0  ------    0.0   0.0  ----   0.0   ----- 
Thu 16:00    E 11/ 22  36.4  6.0  ------    0.0   0.0  ----   0.0   ----- 
Thu 16:30  SSE  9/ 22  36.2  5.9  ------    0.0   0.0   0.0   0.0   ----- 
Thu 17:00    E  7/ 17  36.1  5.9  ------    0.0   0.0   0.0   0.0   ----- 
Thu 17:30  ESE  4/  9  36.1  6.0  ------    0.0   0.0   0.0   0.0   ----- 

Thu 18:00  ESE  7/ 17  35.4  5.7  ------    0.0   0.0   0.0   0.0   ----- 

WARRADARGE EAST AG STATION

Site: 008RDE
Alt: 300m
33km NE of JURIEN BAY


  Time     Wind        Temp  DP   Baro     Rain since   Rain past  Vis(m), Cloud(base in m), Weather
  local        km/h                         9am  last   hr   10m    
Thu 13:00  NNW  6/ 15  33.7  7.5  ------    0.0   0.0   0.0   0.0   ----- 
Thu 13:30   SE  7/ 15  35.2  7.1  ------    0.0   0.0   0.0   0.0   ----- 
Thu 14:00    E 15/ 30  34.4  7.5  ------    0.0   0.0   0.0   0.0   ----- 
Thu 14:30    E 11/ 22  34.9  7.3  ------    0.0   0.0   0.0   0.0   ----- 
Thu 15:00   SW  2/  9  35.9  6.2  ------    0.0   0.0   0.0   0.0   ----- 
Thu 15:30  NNE  7/ 22  36.0  5.7  ------    0.0   0.0   0.0   0.0   ----- 
Thu 15:30  NNE  7/ 22  36.0  5.7  ------    0.0   0.0  ----   0.0   ----- 
Thu 16:00  SSE  4/ 17  36.4  6.0  ------    0.0   0.0   0.0   0.0   ----- 
Thu 16:00  SSE  4/ 17  36.4  6.0  ------    0.0   0.0  ----   0.0   ----- 
Thu 16:00  SSE  4/ 17  36.4  6.0  ------    0.0   0.0  ----   0.0   ----- 
Thu 16:00  SSE  4/ 17  36.4  6.0  ------    0.0   0.0  ----   0.0   ----- 
Thu 16:30    N  4/ 11  35.2  5.1  ------    0.0   0.0   0.0   0.0   ----- 
Thu 17:00  SSE  7/ 30  35.5  9.2  ------    0.0   0.0   0.0   0.0   ----- 
Thu 17:30  SSW 28/ 41  32.6  9.9  ------    0.0   0.0   0.0   0.0   ----- 
Thu 18:00    S 26/ 33  31.6 10.5  ------    0.0   0.0   0.0   0.0   ----- 

WATHEROO AG STATION

Site: 008TRO
Alt: 250m
37km N of MOORA


  Time     Wind        Temp  DP   Baro     Rain since   Rain past  Vis(m), Cloud(base in m), Weather
  local        km/h                         9am  last   hr   10m    
Thu 13:00  NNW  6/ 17  33.6  7.6  ------    0.0   0.0   0.0   0.0   ----- 
Thu 13:30  ESE  6/ 19  34.4  6.6  ------    0.0   0.0   0.0   0.0   ----- 
Thu 14:00   NE  6/ 15  34.0  6.7  ------    0.0   0.0   0.0   0.0   ----- 
Thu 14:30  ESE  7/ 19  34.6  5.6  ------    0.0   0.0   0.0   0.0   ----- 
Thu 15:00   SE  6/ 15  35.5  5.3  ------    0.0   0.0   0.0   0.0   ----- 
Thu 15:30  ESE  4/ 13  35.4  4.8  ------    0.0   0.0   0.0   0.0   ----- 
Thu 15:30  ESE  4/ 13  35.4  4.8  ------    0.0   0.0  ----   0.0   ----- 
Thu 16:00  NNE  6/ 13  35.8  4.6  ------    0.0   0.0   0.0   0.0   ----- 
Thu 16:00  NNE  6/ 13  35.8  4.6  ------    0.0   0.0  ----   0.0   ----- 
Thu 16:00  NNE  6/ 13  35.8  4.6  ------    0.0   0.0  ----   0.0   ----- 
Thu 16:00  NNE  6/ 13  35.8  4.6  ------    0.0   0.0  ----   0.0   ----- 
Thu 16:30    N  7/ 17  35.3  4.8  ------    0.0   0.0   0.0   0.0   ----- 
Thu 17:00    E  6/ 19  35.1  4.7  ------    0.0   0.0   0.0   0.0   ----- 
Thu 17:30    E  7/ 19  35.4  4.8  ------    0.0   0.0   0.0   0.0   ----- 
Thu 18:00    E  7/ 15  34.8  4.9  ------    0.0   0.0   0.0   0.0   ----- 

WONGAN HILLS AG STATION

Site: 008GWH
Alt: m
km of


  Time     Wind        Temp  DP   Baro     Rain since   Rain past  Vis(m), Cloud(base in m), Weather
  local        km/h                         9am  last   hr   10m    
Thu 13:00    E  9/ 22  32.5  8.5  ------    0.0   0.0   0.0   0.0   ----- 
Thu 13:30   NE  6/ 20  32.6  7.3  ------    0.0   0.0   0.0   0.0   ----- 
Thu 14:00   SE  7/ 22  33.3  7.2  ------    0.0   0.0   0.0   0.0   ----- 
Thu 14:30   NE 11/ 28  33.6  7.2  ------    0.0   0.0   0.0   0.0   ----- 
Thu 15:00    E 13/ 33  34.0  7.2  ------    0.0   0.0   0.0   0.0   ----- 
Thu 15:30   NE 13/ 28  33.7  6.5  ------    0.0   0.0   0.0   0.0   ----- 
Thu 15:30   NE 13/ 28  33.7  6.5  ------    0.0   0.0  ----   0.0   ----- 
Thu 16:00    E 13/ 26  34.9  6.4  ------    0.0   0.0   0.0   0.0   ----- 
Thu 16:00    E 13/ 26  34.9  6.4  ------    0.0   0.0  ----   0.0   ----- 
Thu 16:00    E 13/ 26  34.9  6.4  ------    0.0   0.0  ----   0.0   ----- 
Thu 16:00    E 13/ 26  34.9  6.4  ------    0.0   0.0  ----   0.0   ----- 
Thu 16:30  ESE  2/ 15  34.8  6.7  ------    0.0   0.0   0.0   0.0   ----- 
Thu 17:00    E 17/ 26  33.9  6.3  ------    0.0   0.0   0.0   0.0   ----- 
Thu 17:30    E 11/ 20  34.1  6.2  ------    0.0   0.0   0.0   0.0   ----- 
Thu 18:00  ESE 11/ 24  33.7  6.0  ------    0.0   0.0   0.0   0.0   -----